sensor_id;sensor_type;location;lat;lon;timestamp;P1;durP1;ratioP1;P2;durP2;ratioP2
54458;SDS011;40368;49.350;8.152;2022-07-23T00:00:13;51;;;57;;
54458;SDS011;40368;49.350;8.152;2022-07-23T00:01:13;43;;;48;;
54458;SDS011;40368;49.350;8.152;2022-07-23T00:02:13;47;;;53;;
54458;SDS011;40368;49.350;8.152;2022-07-23T00:03:13;50;;;68;;
54458;SDS011;40368;49.350;8.152;2022-07-23T00:04:13;49;;;63;;
54458;SDS011;40368;49.350;8.152;2022-07-23T00:05:13;48;;;62;;
54458;SDS011;40368;49.350;8.152;2022-07-23T00:06:13;48;;;58;;
54458;SDS011;40368;49.350;8.152;2022-07-23T00:07:13;49;;;86;;
54458;SDS011;40368;49.350;8.152;2022-07-23T00:08:13;44;;;57;;
54458;SDS011;40368;49.350;8.152;2022-07-23T00:09:13;49;;;77;;
54458;SDS011;40368;49.350;8.152;2022-07-23T00:10:13;53;;;64;;
54458;SDS011;40368;49.350;8.152;2022-07-23T00:11:13;47;;;56;;
54458;SDS011;40368;49.350;8.152;2022-07-23T00:12:13;45;;;56;;
54458;SDS011;40368;49.350;8.152;2022-07-23T00:13:13;47;;;52;;
54458;SDS011;40368;49.350;8.152;2022-07-23T00:14:13;45;;;77;;
54458;SDS011;40368;49.350;8.152;2022-07-23T00:15:13;48;;;71;;
54458;SDS011;40368;49.350;8.152;2022-07-23T00:16:13;49;;;67;;
54458;SDS011;40368;49.350;8.152;2022-07-23T00:17:13;49;;;58;;
54458;SDS011;40368;49.350;8.152;2022-07-23T00:18:13;46;;;51;;
54458;SDS011;40368;49.350;8.152;2022-07-23T00:19:13;46;;;65;;
54458;SDS011;40368;49.350;8.152;2022-07-23T00:20:13;46;;;66;;
54458;SDS011;40368;49.350;8.152;2022-07-23T00:21:13;46;;;69;;
54458;SDS011;40368;49.350;8.152;2022-07-23T00:22:13;44;;;51;;
54458;SDS011;40368;49.350;8.152;2022-07-23T00:23:13;48;;;67;;
54458;SDS011;40368;49.350;8.152;2022-07-23T00:24:13;46;;;60;;
54458;SDS011;40368;49.350;8.152;2022-07-23T00:25:13;44;;;49;;
54458;SDS011;40368;49.350;8.152;2022-07-23T00:26:13;47;;;61;;
54458;SDS011;40368;49.350;8.152;2022-07-23T00:27:13;48;;;67;;
54458;SDS011;40368;49.350;8.152;2022-07-23T00:28:13;49;;;76;;
54458;SDS011;40368;49.350;8.152;2022-07-23T00:29:13;46;;;57;;
54458;SDS011;40368;49.350;8.152;2022-07-23T00:30:13;46;;;63;;
54458;SDS011;40368;49.350;8.152;2022-07-23T00:31:13;48;;;75;;
54458;SDS011;40368;49.350;8.152;2022-07-23T00:32:13;50;;;56;;
54458;SDS011;40368;49.350;8.152;2022-07-23T00:33:14;47;;;61;;
54458;SDS011;40368;49.350;8.152;2022-07-23T00:34:13;50;;;83;;
54458;SDS011;40368;49.350;8.152;2022-07-23T00:35:13;48;;;70;;
54458;SDS011;40368;49.350;8.152;2022-07-23T00:36:13;45;;;59;;
54458;SDS011;40368;49.350;8.152;2022-07-23T00:37:13;46;;;75;;
54458;SDS011;40368;49.350;8.152;2022-07-23T00:38:13;47;;;67;;
54458;SDS011;40368;49.350;8.152;2022-07-23T00:39:13;53;;;63;;
54458;SDS011;40368;49.350;8.152;2022-07-23T00:40:13;50;;;88;;
54458;SDS011;40368;49.350;8.152;2022-07-23T00:41:13;52;;;77;;
54458;SDS011;40368;49.350;8.152;2022-07-23T00:42:13;48;;;53;;
54458;SDS011;40368;49.350;8.152;2022-07-23T00:43:13;48;;;60;;
54458;SDS011;40368;49.350;8.152;2022-07-23T00:44:14;48;;;58;;
54458;SDS011;40368;49.350;8.152;2022-07-23T00:45:13;50;;;66;;
54458;SDS011;40368;49.350;8.152;2022-07-23T00:46:13;45;;;72;;
54458;SDS011;40368;49.350;8.152;2022-07-23T00:47:13;47;;;95;;
54458;SDS011;40368;49.350;8.152;2022-07-23T00:48:13;48;;;53;;
54458;SDS011;40368;49.350;8.152;2022-07-23T00:49:13;46;;;67;;
54458;SDS011;40368;49.350;8.152;2022-07-23T00:50:13;51;;;69;;
54458;SDS011;40368;49.350;8.152;2022-07-23T00:51:14;43;;;76;;
54458;SDS011;40368;49.350;8.152;2022-07-23T00:52:13;46;;;63;;
54458;SDS011;40368;49.350;8.152;2022-07-23T00:53:13;50;;;87;;
54458;SDS011;40368;49.350;8.152;2022-07-23T00:54:13;45;;;58;;
54458;SDS011;40368;49.350;8.152;2022-07-23T00:55:13;53;;;73;;
54458;SDS011;40368;49.350;8.152;2022-07-23T00:56:13;49;;;56;;
54458;SDS011;40368;49.350;8.152;2022-07-23T00:57:13;50;;;76;;
54458;SDS011;40368;49.350;8.152;2022-07-23T00:58:13;46;;;68;;
54458;SDS011;40368;49.350;8.152;2022-07-23T00:59:13;48;;;65;;
54458;SDS011;40368;49.350;8.152;2022-07-23T01:00:13;50;;;99;;
54458;SDS011;40368;49.350;8.152;2022-07-23T01:01:13;50;;;76;;
54458;SDS011;40368;49.350;8.152;2022-07-23T01:02:13;48;;;60;;
54458;SDS011;40368;49.350;8.152;2022-07-23T01:03:13;46;;;82;;
54458;SDS011;40368;49.350;8.152;2022-07-23T01:04:13;50;;;63;;
54458;SDS011;40368;49.350;8.152;2022-07-23T01:06:13;49;;;77;;
54458;SDS011;40368;49.350;8.152;2022-07-23T01:07:13;45;;;62;;
54458;SDS011;40368;49.350;8.152;2022-07-23T01:08:13;54;;;71;;
54458;SDS011;40368;49.350;8.152;2022-07-23T01:09:13;54;;;76;;
54458;SDS011;40368;49.350;8.152;2022-07-23T01:10:31;46;;;51;;
54458;SDS011;40368;49.350;8.152;2022-07-23T01:11:29;50;;;79;;
54458;SDS011;40368;49.350;8.152;2022-07-23T01:13:02;51;;;62;;
54458;SDS011;40368;49.350;8.152;2022-07-23T01:13:57;48;;;56;;
54458;SDS011;40368;49.350;8.152;2022-07-23T01:15:11;46;;;67;;
54458;SDS011;40368;49.350;8.152;2022-07-23T01:16:25;44;;;48;;
54458;SDS011;40368;49.350;8.152;2022-07-23T01:17:02;47;;;57;;
54458;SDS011;40368;49.350;8.152;2022-07-23T01:18:00;49;;;58;;
54458;SDS011;40368;49.350;8.152;2022-07-23T01:18:37;51;;;77;;
54458;SDS011;40368;49.350;8.152;2022-07-23T01:19:16;50;;;89;;
54458;SDS011;40368;49.350;8.152;2022-07-23T01:20:13;47;;;61;;
54458;SDS011;40368;49.350;8.152;2022-07-23T01:21:27;53;;;102;;
54458;SDS011;40368;49.350;8.152;2022-07-23T01:22:41;49;;;107;;
54458;SDS011;40368;49.350;8.152;2022-07-23T01:23:55;52;;;58;;
54458;SDS011;40368;49.350;8.152;2022-07-23T01:25:09;47;;;59;;
54458;SDS011;40368;49.350;8.152;2022-07-23T01:26:24;48;;;78;;
54458;SDS011;40368;49.350;8.152;2022-07-23T01:27:38;50;;;75;;
54458;SDS011;40368;49.350;8.152;2022-07-23T01:28:52;47;;;83;;
54458;SDS011;40368;49.350;8.152;2022-07-23T01:29:29;49;;;59;;
54458;SDS011;40368;49.350;8.152;2022-07-23T01:30:43;48;;;62;;
54458;SDS011;40368;49.350;8.152;2022-07-23T01:31:57;49;;;78;;
54458;SDS011;40368;49.350;8.152;2022-07-23T01:32:34;46;;;51;;
54458;SDS011;40368;49.350;8.152;2022-07-23T01:33:48;48;;;65;;
54458;SDS011;40368;49.350;8.152;2022-07-23T01:34:25;49;;;56;;
54458;SDS011;40368;49.350;8.152;2022-07-23T01:35:40;48;;;60;;
54458;SDS011;40368;49.350;8.152;2022-07-23T01:37:22;49;;;54;;
54458;SDS011;40368;49.350;8.152;2022-07-23T01:38:37;45;;;52;;
54458;SDS011;40368;49.350;8.152;2022-07-23T01:39:51;49;;;56;;
54458;SDS011;40368;49.350;8.152;2022-07-23T01:40:28;49;;;56;;
54458;SDS011;40368;49.350;8.152;2022-07-23T01:41:42;49;;;66;;
54458;SDS011;40368;49.350;8.152;2022-07-23T01:42:56;55;;;91;;
54458;SDS011;40368;49.350;8.152;2022-07-23T01:43:33;50;;;91;;
54458;SDS011;40368;49.350;8.152;2022-07-23T01:44:47;48;;;53;;
54458;SDS011;40368;49.350;8.152;2022-07-23T01:46:38;49;;;78;;
54458;SDS011;40368;49.350;8.152;2022-07-23T01:47:52;52;;;64;;
54458;SDS011;40368;49.350;8.152;2022-07-23T01:49:44;48;;;55;;
54458;SDS011;40368;49.350;8.152;2022-07-23T01:51:35;50;;;76;;
54458;SDS011;40368;49.350;8.152;2022-07-23T01:52:49;51;;;72;;
54458;SDS011;40368;49.350;8.152;2022-07-23T01:54:40;54;;;91;;
54458;SDS011;40368;49.350;8.152;2022-07-23T01:55:54;55;;;67;;
54458;SDS011;40368;49.350;8.152;2022-07-23T01:57:45;48;;;73;;
54458;SDS011;40368;49.350;8.152;2022-07-23T01:59:37;50;;;148;;
54458;SDS011;40368;49.350;8.152;2022-07-23T02:00:51;49;;;64;;
54458;SDS011;40368;49.350;8.152;2022-07-23T02:02:42;47;;;56;;
54458;SDS011;40368;49.350;8.152;2022-07-23T02:03:56;52;;;66;;
54458;SDS011;40368;49.350;8.152;2022-07-23T02:05:47;47;;;60;;
54458;SDS011;40368;49.350;8.152;2022-07-23T02:07:38;47;;;65;;
54458;SDS011;40368;49.350;8.152;2022-07-23T02:08:53;44;;;49;;
54458;SDS011;40368;49.350;8.152;2022-07-23T02:10:44;47;;;54;;
54458;SDS011;40368;49.350;8.152;2022-07-23T02:12:35;52;;;64;;
54458;SDS011;40368;49.350;8.152;2022-07-23T02:13:49;51;;;64;;
54458;SDS011;40368;49.350;8.152;2022-07-23T02:15:40;42;;;64;;
54458;SDS011;40368;49.350;8.152;2022-07-23T02:17:31;51;;;60;;
54458;SDS011;40368;49.350;8.152;2022-07-23T02:18:46;46;;;50;;
54458;SDS011;40368;49.350;8.152;2022-07-23T02:20:37;49;;;54;;
54458;SDS011;40368;49.350;8.152;2022-07-23T02:21:51;45;;;54;;
54458;SDS011;40368;49.350;8.152;2022-07-23T02:23:42;53;;;71;;
54458;SDS011;40368;49.350;8.152;2022-07-23T02:24:56;45;;;53;;
54458;SDS011;40368;49.350;8.152;2022-07-23T02:26:47;46;;;58;;
54458;SDS011;40368;49.350;8.152;2022-07-23T02:28:39;48;;;70;;
54458;SDS011;40368;49.350;8.152;2022-07-23T02:29:53;47;;;88;;
54458;SDS011;40368;49.350;8.152;2022-07-23T02:31:44;47;;;75;;
54458;SDS011;40368;49.350;8.152;2022-07-23T02:33:35;44;;;61;;
54458;SDS011;40368;49.350;8.152;2022-07-23T02:34:49;49;;;65;;
54458;SDS011;40368;49.350;8.152;2022-07-23T02:36:40;42;;;56;;
54458;SDS011;40368;49.350;8.152;2022-07-23T02:37:46;41;;;57;;
54458;SDS011;40368;49.350;8.152;2022-07-23T02:39:38;47;;;65;;
54458;SDS011;40368;49.350;8.152;2022-07-23T02:40:52;49;;;80;;
54458;SDS011;40368;49.350;8.152;2022-07-23T02:42:43;49;;;64;;
54458;SDS011;40368;49.350;8.152;2022-07-23T02:43:57;46;;;73;;
54458;SDS011;40368;49.350;8.152;2022-07-23T02:45:48;48;;;73;;
54458;SDS011;40368;49.350;8.152;2022-07-23T02:47:39;52;;;62;;
54458;SDS011;40368;49.350;8.152;2022-07-23T02:48:54;40;;;50;;
54458;SDS011;40368;49.350;8.152;2022-07-23T02:50:45;50;;;55;;
54458;SDS011;40368;49.350;8.152;2022-07-23T02:52:36;45;;;74;;
54458;SDS011;40368;49.350;8.152;2022-07-23T02:53:50;46;;;57;;
54458;SDS011;40368;49.350;8.152;2022-07-23T02:54:27;46;;;57;;
54458;SDS011;40368;49.350;8.152;2022-07-23T02:55:41;45;;;76;;
54458;SDS011;40368;49.350;8.152;2022-07-23T02:56:55;45;;;63;;
54458;SDS011;40368;49.350;8.152;2022-07-23T02:58:46;45;;;50;;
54458;SDS011;40368;49.350;8.152;2022-07-23T03:00:38;44;;;75;;
54458;SDS011;40368;49.350;8.152;2022-07-23T03:01:52;46;;;70;;
54458;SDS011;40368;49.350;8.152;2022-07-23T03:03:43;47;;;57;;
54458;SDS011;40368;49.350;8.152;2022-07-23T03:04:57;41;;;54;;
54458;SDS011;40368;49.350;8.152;2022-07-23T03:06:48;51;;;73;;
54458;SDS011;40368;49.350;8.152;2022-07-23T03:08:39;49;;;63;;
54458;SDS011;40368;49.350;8.152;2022-07-23T03:09:54;48;;;58;;
54458;SDS011;40368;49.350;8.152;2022-07-23T03:11:45;46;;;68;;
54458;SDS011;40368;49.350;8.152;2022-07-23T03:13:36;48;;;57;;
54458;SDS011;40368;49.350;8.152;2022-07-23T03:14:50;55;;;92;;
54458;SDS011;40368;49.350;8.152;2022-07-23T03:16:41;50;;;68;;
54458;SDS011;40368;49.350;8.152;2022-07-23T03:17:55;46;;;61;;
54458;SDS011;40368;49.350;8.152;2022-07-23T03:18:33;44;;;56;;
54458;SDS011;40368;49.350;8.152;2022-07-23T03:19:47;49;;;63;;
54458;SDS011;40368;49.350;8.152;2022-07-23T03:21:38;47;;;71;;
54458;SDS011;40368;49.350;8.152;2022-07-23T03:22:52;43;;;51;;
54458;SDS011;40368;49.350;8.152;2022-07-23T03:24:43;49;;;54;;
54458;SDS011;40368;49.350;8.152;2022-07-23T03:25:57;43;;;56;;
54458;SDS011;40368;49.350;8.152;2022-07-23T03:27:48;41;;;46;;
54458;SDS011;40368;49.350;8.152;2022-07-23T03:29:40;46;;;58;;
54458;SDS011;40368;49.350;8.152;2022-07-23T03:30:54;47;;;60;;
54458;SDS011;40368;49.350;8.152;2022-07-23T03:32:45;45;;;80;;
54458;SDS011;40368;49.350;8.152;2022-07-23T03:34:36;48;;;69;;
54458;SDS011;40368;49.350;8.152;2022-07-23T03:35:50;42;;;46;;
54458;SDS011;40368;49.350;8.152;2022-07-23T03:37:41;45;;;50;;
54458;SDS011;40368;49.350;8.152;2022-07-23T03:38:47;48;;;69;;
54458;SDS011;40368;49.350;8.152;2022-07-23T03:40:38;41;;;59;;
54458;SDS011;40368;49.350;8.152;2022-07-23T03:41:53;46;;;62;;
54458;SDS011;40368;49.350;8.152;2022-07-23T03:43:44;46;;;71;;
54458;SDS011;40368;49.350;8.152;2022-07-23T03:45:35;47;;;81;;
54458;SDS011;40368;49.350;8.152;2022-07-23T03:46:49;52;;;115;;
54458;SDS011;40368;49.350;8.152;2022-07-23T03:48:40;47;;;97;;
54458;SDS011;40368;49.350;8.152;2022-07-23T03:49:54;47;;;54;;
54458;SDS011;40368;49.350;8.152;2022-07-23T03:51:46;46;;;81;;
54458;SDS011;40368;49.350;8.152;2022-07-23T03:53:37;54;;;60;;
54458;SDS011;40368;49.350;8.152;2022-07-23T03:54:51;48;;;57;;
54458;SDS011;40368;49.350;8.152;2022-07-23T03:56:42;51;;;57;;
54458;SDS011;40368;49.350;8.152;2022-07-23T03:57:56;47;;;69;;
54458;SDS011;40368;49.350;8.152;2022-07-23T03:59:47;46;;;70;;
54458;SDS011;40368;49.350;8.152;2022-07-23T04:01:39;51;;;70;;
54458;SDS011;40368;49.350;8.152;2022-07-23T04:02:53;52;;;58;;
54458;SDS011;40368;49.350;8.152;2022-07-23T04:04:44;48;;;81;;
54458;SDS011;40368;49.350;8.152;2022-07-23T04:06:35;49;;;66;;
54458;SDS011;40368;49.350;8.152;2022-07-23T04:07:49;45;;;92;;
54458;SDS011;40368;49.350;8.152;2022-07-23T04:09:40;48;;;53;;
54458;SDS011;40368;49.350;8.152;2022-07-23T04:10:55;52;;;86;;
54458;SDS011;40368;49.350;8.152;2022-07-23T04:12:46;45;;;66;;
54458;SDS011;40368;49.350;8.152;2022-07-23T04:14:37;49;;;64;;
54458;SDS011;40368;49.350;8.152;2022-07-23T04:15:51;52;;;88;;
54458;SDS011;40368;49.350;8.152;2022-07-23T04:17:42;50;;;60;;
54458;SDS011;40368;49.350;8.152;2022-07-23T04:18:56;54;;;60;;
54458;SDS011;40368;49.350;8.152;2022-07-23T04:20:48;54;;;84;;
54458;SDS011;40368;49.350;8.152;2022-07-23T04:22:39;51;;;70;;
54458;SDS011;40368;49.350;8.152;2022-07-23T04:23:53;52;;;71;;
54458;SDS011;40368;49.350;8.152;2022-07-23T04:25:44;52;;;73;;
54458;SDS011;40368;49.350;8.152;2022-07-23T04:27:35;49;;;62;;
54458;SDS011;40368;49.350;8.152;2022-07-23T04:28:49;49;;;55;;
54458;SDS011;40368;49.350;8.152;2022-07-23T04:30:40;48;;;53;;
54458;SDS011;40368;49.350;8.152;2022-07-23T04:31:55;47;;;52;;
54458;SDS011;40368;49.350;8.152;2022-07-23T04:33:46;56;;;71;;
54458;SDS011;40368;49.350;8.152;2022-07-23T04:35:37;51;;;62;;
54458;SDS011;40368;49.350;8.152;2022-07-23T04:36:51;58;;;111;;
54458;SDS011;40368;49.350;8.152;2022-07-23T04:38:05;67;;;140;;
54458;SDS011;40368;49.350;8.152;2022-07-23T04:39:48;56;;;86;;
54458;SDS011;40368;49.350;8.152;2022-07-23T04:41:39;57;;;83;;
54458;SDS011;40368;49.350;8.152;2022-07-23T04:42:54;54;;;67;;
54458;SDS011;40368;49.350;8.152;2022-07-23T04:44:45;60;;;78;;
54458;SDS011;40368;49.350;8.152;2022-07-23T04:46:36;59;;;77;;
54458;SDS011;40368;49.350;8.152;2022-07-23T04:47:50;58;;;75;;
54458;SDS011;40368;49.350;8.152;2022-07-23T04:49:41;62;;;93;;
54458;SDS011;40368;49.350;8.152;2022-07-23T04:50:55;61;;;75;;
54458;SDS011;40368;49.350;8.152;2022-07-23T04:51:32;58;;;83;;
54458;SDS011;40368;49.350;8.152;2022-07-23T04:52:47;63;;;79;;
54458;SDS011;40368;49.350;8.152;2022-07-23T04:53:24;60;;;89;;
54458;SDS011;40368;49.350;8.152;2022-07-23T04:54:38;65;;;86;;
54458;SDS011;40368;49.350;8.152;2022-07-23T04:55:52;68;;;98;;
54458;SDS011;40368;49.350;8.152;2022-07-23T04:57:43;63;;;88;;
54458;SDS011;40368;49.350;8.152;2022-07-23T04:58:57;58;;;80;;
54458;SDS011;40368;49.350;8.152;2022-07-23T05:00:48;66;;;100;;
54458;SDS011;40368;49.350;8.152;2022-07-23T05:02:40;62;;;72;;
54458;SDS011;40368;49.350;8.152;2022-07-23T05:03:54;62;;;99;;
54458;SDS011;40368;49.350;8.152;2022-07-23T05:05:45;64;;;99;;
54458;SDS011;40368;49.350;8.152;2022-07-23T05:07:36;61;;;158;;
54458;SDS011;40368;49.350;8.152;2022-07-23T05:08:50;63;;;79;;
54458;SDS011;40368;49.350;8.152;2022-07-23T05:10:41;58;;;94;;
54458;SDS011;40368;49.350;8.152;2022-07-23T05:11:55;60;;;84;;
54458;SDS011;40368;49.350;8.152;2022-07-23T05:13:47;64;;;93;;
54458;SDS011;40368;49.350;8.152;2022-07-23T05:15:38;59;;;72;;
54458;SDS011;40368;49.350;8.152;2022-07-23T05:16:52;66;;;99;;
54458;SDS011;40368;49.350;8.152;2022-07-23T05:18:43;65;;;135;;
54458;SDS011;40368;49.350;8.152;2022-07-23T05:20:34;67;;;96;;
54458;SDS011;40368;49.350;8.152;2022-07-23T05:21:49;63;;;94;;
54458;SDS011;40368;49.350;8.152;2022-07-23T05:23:40;63;;;78;;
54458;SDS011;40368;49.350;8.152;2022-07-23T05:24:54;61;;;94;;
54458;SDS011;40368;49.350;8.152;2022-07-23T05:26:45;59;;;76;;
54458;SDS011;40368;49.350;8.152;2022-07-23T05:28:36;62;;;100;;
54458;SDS011;40368;49.350;8.152;2022-07-23T05:29:50;63;;;78;;
54458;SDS011;40368;49.350;8.152;2022-07-23T05:31:41;67;;;114;;
54458;SDS011;40368;49.350;8.152;2022-07-23T05:32:56;64;;;91;;
54458;SDS011;40368;49.350;8.152;2022-07-23T05:34:47;66;;;98;;
54458;SDS011;40368;49.350;8.152;2022-07-23T05:36:38;63;;;83;;
54458;SDS011;40368;49.350;8.152;2022-07-23T05:37:52;63;;;91;;
54458;SDS011;40368;49.350;8.152;2022-07-23T05:40:49;58;;;74;;
54458;SDS011;40368;49.350;8.152;2022-07-23T05:42:40;60;;;82;;
54458;SDS011;40368;49.350;8.152;2022-07-23T05:43:54;62;;;84;;
54458;SDS011;40368;49.350;8.152;2022-07-23T05:45:46;52;;;68;;
54458;SDS011;40368;49.350;8.152;2022-07-23T05:47:41;56;;;111;;
54458;SDS011;40368;49.350;8.152;2022-07-23T05:48:51;57;;;78;;
54458;SDS011;40368;49.350;8.152;2022-07-23T05:50:42;60;;;104;;
54458;SDS011;40368;49.350;8.152;2022-07-23T05:51:56;61;;;75;;
54458;SDS011;40368;49.350;8.152;2022-07-23T05:53:48;58;;;82;;
54458;SDS011;40368;49.350;8.152;2022-07-23T05:55:39;68;;;107;;
54458;SDS011;40368;49.350;8.152;2022-07-23T05:56:53;68;;;145;;
54458;SDS011;40368;49.350;8.152;2022-07-23T05:58:44;57;;;65;;
54458;SDS011;40368;49.350;8.152;2022-07-23T06:00:35;60;;;71;;
54458;SDS011;40368;49.350;8.152;2022-07-23T06:01:49;66;;;89;;
54458;SDS011;40368;49.350;8.152;2022-07-23T06:03:40;65;;;80;;
54458;SDS011;40368;49.350;8.152;2022-07-23T06:04:55;62;;;69;;
54458;SDS011;40368;49.350;8.152;2022-07-23T06:06:46;66;;;81;;
54458;SDS011;40368;49.350;8.152;2022-07-23T06:08:37;64;;;99;;
54458;SDS011;40368;49.350;8.152;2022-07-23T06:09:51;65;;;74;;
54458;SDS011;40368;49.350;8.152;2022-07-23T06:11:42;66;;;73;;
54458;SDS011;40368;49.350;8.152;2022-07-23T06:13:34;66;;;102;;
54458;SDS011;40368;49.350;8.152;2022-07-23T06:14:48;57;;;63;;
54458;SDS011;40368;49.350;8.152;2022-07-23T06:16:39;67;;;96;;
54458;SDS011;40368;49.350;8.152;2022-07-23T06:17:53;63;;;76;;
54458;SDS011;40368;49.350;8.152;2022-07-23T06:19:44;62;;;101;;
54458;SDS011;40368;49.350;8.152;2022-07-23T06:21:35;63;;;93;;
54458;SDS011;40368;49.350;8.152;2022-07-23T06:22:49;69;;;82;;
54458;SDS011;40368;49.350;8.152;2022-07-23T06:24:41;60;;;75;;
54458;SDS011;40368;49.350;8.152;2022-07-23T06:25:55;71;;;88;;
54458;SDS011;40368;49.350;8.152;2022-07-23T06:27:46;63;;;72;;
54458;SDS011;40368;49.350;8.152;2022-07-23T06:29:37;61;;;67;;
54458;SDS011;40368;49.350;8.152;2022-07-23T06:30:51;61;;;102;;
54458;SDS011;40368;49.350;8.152;2022-07-23T06:32:43;62;;;69;;
54458;SDS011;40368;49.350;8.152;2022-07-23T06:33:57;60;;;82;;
54458;SDS011;40368;49.350;8.152;2022-07-23T06:35:48;64;;;103;;
54458;SDS011;40368;49.350;8.152;2022-07-23T06:37:39;63;;;95;;
54458;SDS011;40368;49.350;8.152;2022-07-23T06:40:36;58;;;65;;
54458;SDS011;40368;49.350;8.152;2022-07-23T06:41:50;63;;;87;;
54458;SDS011;40368;49.350;8.152;2022-07-23T06:43:41;64;;;89;;
54458;SDS011;40368;49.350;8.152;2022-07-23T06:44:55;63;;;80;;
54458;SDS011;40368;49.350;8.152;2022-07-23T06:46:47;60;;;69;;
54458;SDS011;40368;49.350;8.152;2022-07-23T06:48:38;64;;;79;;
54458;SDS011;40368;49.350;8.152;2022-07-23T06:49:52;61;;;78;;
54458;SDS011;40368;49.350;8.152;2022-07-23T06:51:43;64;;;86;;
54458;SDS011;40368;49.350;8.152;2022-07-23T06:53:34;62;;;73;;
54458;SDS011;40368;49.350;8.152;2022-07-23T06:54:48;63;;;83;;
54458;SDS011;40368;49.350;8.152;2022-07-23T06:56:40;61;;;88;;
54458;SDS011;40368;49.350;8.152;2022-07-23T06:57:54;62;;;79;;
54458;SDS011;40368;49.350;8.152;2022-07-23T06:59:45;67;;;106;;
54458;SDS011;40368;49.350;8.152;2022-07-23T07:01:36;61;;;68;;
54458;SDS011;40368;49.350;8.152;2022-07-23T07:02:50;60;;;88;;
54458;SDS011;40368;49.350;8.152;2022-07-23T07:04:41;62;;;76;;
54458;SDS011;40368;49.350;8.152;2022-07-23T07:05:56;68;;;80;;
54458;SDS011;40368;49.350;8.152;2022-07-23T07:07:47;60;;;74;;
54458;SDS011;40368;49.350;8.152;2022-07-23T07:09:38;67;;;75;;
54458;SDS011;40368;49.350;8.152;2022-07-23T07:10:52;64;;;71;;
54458;SDS011;40368;49.350;8.152;2022-07-23T07:12:43;68;;;89;;
54458;SDS011;40368;49.350;8.152;2022-07-23T07:14:34;63;;;70;;
54458;SDS011;40368;49.350;8.152;2022-07-23T07:15:49;67;;;86;;
54458;SDS011;40368;49.350;8.152;2022-07-23T07:17:40;65;;;76;;
54458;SDS011;40368;49.350;8.152;2022-07-23T07:18:54;58;;;68;;
54458;SDS011;40368;49.350;8.152;2022-07-23T07:20:45;59;;;79;;
54458;SDS011;40368;49.350;8.152;2022-07-23T07:22:36;64;;;108;;
54458;SDS011;40368;49.350;8.152;2022-07-23T07:23:50;63;;;91;;
54458;SDS011;40368;49.350;8.152;2022-07-23T07:25:42;62;;;73;;
54458;SDS011;40368;49.350;8.152;2022-07-23T07:26:56;66;;;77;;
54458;SDS011;40368;49.350;8.152;2022-07-23T07:28:47;64;;;88;;
54458;SDS011;40368;49.350;8.152;2022-07-23T07:30:38;60;;;67;;
54458;SDS011;40368;49.350;8.152;2022-07-23T07:31:52;61;;;68;;
54458;SDS011;40368;49.350;8.152;2022-07-23T07:33:43;59;;;74;;
54458;SDS011;40368;49.350;8.152;2022-07-23T07:34:58;61;;;80;;
54458;SDS011;40368;49.350;8.152;2022-07-23T07:36:49;70;;;109;;
54458;SDS011;40368;49.350;8.152;2022-07-23T07:38:40;64;;;89;;
54458;SDS011;40368;49.350;8.152;2022-07-23T07:39:46;61;;;79;;
54458;SDS011;40368;49.350;8.152;2022-07-23T07:41:37;61;;;74;;
54458;SDS011;40368;49.350;8.152;2022-07-23T07:42:52;65;;;79;;
54458;SDS011;40368;49.350;8.152;2022-07-23T07:44:42;60;;;69;;
54458;SDS011;40368;49.350;8.152;2022-07-23T07:45:56;63;;;77;;
54458;SDS011;40368;49.350;8.152;2022-07-23T07:47:48;57;;;89;;
54458;SDS011;40368;49.350;8.152;2022-07-23T07:49:39;66;;;89;;
54458;SDS011;40368;49.350;8.152;2022-07-23T07:50:53;62;;;73;;
54458;SDS011;40368;49.350;8.152;2022-07-23T07:52:44;60;;;75;;
54458;SDS011;40368;49.350;8.152;2022-07-23T07:54:35;57;;;65;;
54458;SDS011;40368;49.350;8.152;2022-07-23T07:55:49;61;;;75;;
54458;SDS011;40368;49.350;8.152;2022-07-23T07:57:41;61;;;68;;
54458;SDS011;40368;49.350;8.152;2022-07-23T07:58:55;59;;;65;;
54458;SDS011;40368;49.350;8.152;2022-07-23T08:00:46;73;;;176;;
54458;SDS011;40368;49.350;8.152;2022-07-23T08:02:41;76;;;111;;
54458;SDS011;40368;49.350;8.152;2022-07-23T08:03:51;63;;;75;;
54458;SDS011;40368;49.350;8.152;2022-07-23T08:05:42;69;;;79;;
54458;SDS011;40368;49.350;8.152;2022-07-23T08:06:56;66;;;84;;
54458;SDS011;40368;49.350;8.152;2022-07-23T08:08:48;73;;;100;;
54458;SDS011;40368;49.350;8.152;2022-07-23T08:10:39;65;;;79;;
54458;SDS011;40368;49.350;8.152;2022-07-23T08:11:53;70;;;127;;
54458;SDS011;40368;49.350;8.152;2022-07-23T08:13:44;72;;;80;;
54458;SDS011;40368;49.350;8.152;2022-07-23T08:15:35;65;;;88;;
54458;SDS011;40368;49.350;8.152;2022-07-23T08:16:50;75;;;118;;
54458;SDS011;40368;49.350;8.152;2022-07-23T08:18:41;70;;;103;;
54458;SDS011;40368;49.350;8.152;2022-07-23T08:19:55;71;;;98;;
54458;SDS011;40368;49.350;8.152;2022-07-23T08:21:46;74;;;87;;
54458;SDS011;40368;49.350;8.152;2022-07-23T08:23:37;69;;;89;;
54458;SDS011;40368;49.350;8.152;2022-07-23T08:24:51;63;;;76;;
54458;SDS011;40368;49.350;8.152;2022-07-23T08:26:43;69;;;79;;
54458;SDS011;40368;49.350;8.152;2022-07-23T08:27:57;62;;;69;;
54458;SDS011;40368;49.350;8.152;2022-07-23T08:29:48;63;;;83;;
54458;SDS011;40368;49.350;8.152;2022-07-23T08:31:39;68;;;79;;
54458;SDS011;40368;49.350;8.152;2022-07-23T08:32:54;70;;;97;;
54458;SDS011;40368;49.350;8.152;2022-07-23T08:34:44;76;;;106;;
54458;SDS011;40368;49.350;8.152;2022-07-23T08:36:36;69;;;91;;
54458;SDS011;40368;49.350;8.152;2022-07-23T08:37:50;65;;;72;;
54458;SDS011;40368;49.350;8.152;2022-07-23T08:39:41;69;;;95;;
54458;SDS011;40368;49.350;8.152;2022-07-23T08:40:48;71;;;96;;
54458;SDS011;40368;49.350;8.152;2022-07-23T08:42:38;70;;;90;;
54458;SDS011;40368;49.350;8.152;2022-07-23T08:43:52;65;;;88;;
54458;SDS011;40368;49.350;8.152;2022-07-23T08:45:46;75;;;83;;
54458;SDS011;40368;49.350;8.152;2022-07-23T08:46:57;71;;;79;;
54458;SDS011;40368;49.350;8.152;2022-07-23T08:48:49;73;;;93;;
54458;SDS011;40368;49.350;8.152;2022-07-23T08:50:41;66;;;87;;
54458;SDS011;40368;49.350;8.152;2022-07-23T08:51:54;65;;;82;;
54458;SDS011;40368;49.350;8.152;2022-07-23T08:53:45;70;;;84;;
54458;SDS011;40368;49.350;8.152;2022-07-23T08:55:36;71;;;117;;
54458;SDS011;40368;49.350;8.152;2022-07-23T08:56:50;68;;;76;;
54458;SDS011;40368;49.350;8.152;2022-07-23T08:58:42;65;;;117;;
54458;SDS011;40368;49.350;8.152;2022-07-23T08:59:56;63;;;92;;
54458;SDS011;40368;49.350;8.152;2022-07-23T09:03:38;70;;;78;;
54458;SDS011;40368;49.350;8.152;2022-07-23T09:04:52;70;;;86;;
54458;SDS011;40368;49.350;8.152;2022-07-23T09:06:43;81;;;94;;
54458;SDS011;40368;49.350;8.152;2022-07-23T09:08:35;81;;;111;;
54458;SDS011;40368;49.350;8.152;2022-07-23T09:09:52;79;;;123;;
54458;SDS011;40368;49.350;8.152;2022-07-23T09:11:40;81;;;129;;
54458;SDS011;40368;49.350;8.152;2022-07-23T09:12:54;75;;;106;;
54458;SDS011;40368;49.350;8.152;2022-07-23T09:14:45;72;;;116;;
54458;SDS011;40368;49.350;8.152;2022-07-23T09:16:36;80;;;112;;
54458;SDS011;40368;49.350;8.152;2022-07-23T09:17:50;84;;;98;;